sensor_id;sensor_type;location;lat;lon;timestamp;P1;durP1;ratioP1;P2;durP2;ratioP2
3975;SDS011;2002;48.812;9.180;2023-06-04T00:01:10;6.07;;;5.10;;
3975;SDS011;2002;48.812;9.180;2023-06-04T00:03:36;4.80;;;4.30;;
3975;SDS011;2002;48.812;9.180;2023-06-04T00:06:01;7.00;;;4.60;;
3975;SDS011;2002;48.812;9.180;2023-06-04T00:08:27;7.43;;;5.60;;
3975;SDS011;2002;48.812;9.180;2023-06-04T00:10:53;7.33;;;5.27;;
3975;SDS011;2002;48.812;9.180;2023-06-04T00:13:18;6.13;;;4.63;;
3975;SDS011;2002;48.812;9.180;2023-06-04T00:15:44;6.60;;;5.87;;
3975;SDS011;2002;48.812;9.180;2023-06-04T00:18:09;6.30;;;5.80;;
3975;SDS011;2002;48.812;9.180;2023-06-04T00:20:36;6.13;;;5.53;;
3975;SDS011;2002;48.812;9.180;2023-06-04T00:23:02;5.90;;;5.40;;
3975;SDS011;2002;48.812;9.180;2023-06-04T00:25:28;6.50;;;5.13;;
3975;SDS011;2002;48.812;9.180;2023-06-04T00:27:53;5.50;;;5.00;;
3975;SDS011;2002;48.812;9.180;2023-06-04T00:30:19;5.30;;;4.80;;
3975;SDS011;2002;48.812;9.180;2023-06-04T00:32:44;5.03;;;4.63;;
3975;SDS011;2002;48.812;9.180;2023-06-04T00:35:12;5.50;;;5.00;;
3975;SDS011;2002;48.812;9.180;2023-06-04T00:37:37;4.90;;;4.43;;
3975;SDS011;2002;48.812;9.180;2023-06-04T00:40:03;4.90;;;4.43;;
3975;SDS011;2002;48.812;9.180;2023-06-04T00:42:30;5.93;;;4.77;;
3975;SDS011;2002;48.812;9.180;2023-06-04T00:44:56;5.00;;;4.60;;
3975;SDS011;2002;48.812;9.180;2023-06-04T00:47:23;5.20;;;4.70;;
3975;SDS011;2002;48.812;9.180;2023-06-04T00:49:49;9.30;;;5.47;;
3975;SDS011;2002;48.812;9.180;2023-06-04T00:52:15;6.10;;;5.33;;
3975;SDS011;2002;48.812;9.180;2023-06-04T00:54:41;6.00;;;5.30;;
3975;SDS011;2002;48.812;9.180;2023-06-04T00:57:07;8.03;;;4.77;;
3975;SDS011;2002;48.812;9.180;2023-06-04T00:59:36;4.70;;;4.30;;
3975;SDS011;2002;48.812;9.180;2023-06-04T01:02:11;5.30;;;4.80;;
3975;SDS011;2002;48.812;9.180;2023-06-04T01:07:09;6.37;;;5.83;;
3975;SDS011;2002;48.812;9.180;2023-06-04T01:09:35;6.00;;;5.50;;
3975;SDS011;2002;48.812;9.180;2023-06-04T01:12:05;5.80;;;5.00;;
3975;SDS011;2002;48.812;9.180;2023-06-04T01:14:32;6.37;;;5.30;;
3975;SDS011;2002;48.812;9.180;2023-06-04T01:27:56;6.73;;;4.60;;
3975;SDS011;2002;48.812;9.180;2023-06-04T01:30:23;6.43;;;5.00;;
3975;SDS011;2002;48.812;9.180;2023-06-04T01:32:59;7.07;;;4.73;;
3975;SDS011;2002;48.812;9.180;2023-06-04T01:35:26;5.07;;;4.67;;
3975;SDS011;2002;48.812;9.180;2023-06-04T01:37:53;5.03;;;4.63;;
3975;SDS011;2002;48.812;9.180;2023-06-04T01:40:19;4.97;;;4.57;;
3975;SDS011;2002;48.812;9.180;2023-06-04T01:42:45;5.40;;;4.90;;
3975;SDS011;2002;48.812;9.180;2023-06-04T01:45:11;4.17;;;3.80;;
3975;SDS011;2002;48.812;9.180;2023-06-04T01:47:36;8.17;;;4.80;;
3975;SDS011;2002;48.812;9.180;2023-06-04T01:50:05;4.77;;;4.37;;
3975;SDS011;2002;48.812;9.180;2023-06-04T01:52:34;5.50;;;5.00;;
3975;SDS011;2002;48.812;9.180;2023-06-04T01:55:06;8.07;;;5.00;;
3975;SDS011;2002;48.812;9.180;2023-06-04T01:57:33;4.77;;;3.90;;
3975;SDS011;2002;48.812;9.180;2023-06-04T02:00:00;5.00;;;4.60;;
3975;SDS011;2002;48.812;9.180;2023-06-04T02:02:26;4.70;;;3.73;;
3975;SDS011;2002;48.812;9.180;2023-06-04T02:04:52;4.93;;;4.37;;
3975;SDS011;2002;48.812;9.180;2023-06-04T02:07:18;4.60;;;4.20;;
3975;SDS011;2002;48.812;9.180;2023-06-04T02:09:46;4.63;;;4.17;;
3975;SDS011;2002;48.812;9.180;2023-06-04T02:12:12;5.03;;;4.57;;
3975;SDS011;2002;48.812;9.180;2023-06-04T02:14:38;7.73;;;4.53;;
3975;SDS011;2002;48.812;9.180;2023-06-04T02:17:03;4.27;;;3.97;;
3975;SDS011;2002;48.812;9.180;2023-06-04T02:19:30;5.13;;;4.00;;
3975;SDS011;2002;48.812;9.180;2023-06-04T02:21:58;4.37;;;3.97;;
3975;SDS011;2002;48.812;9.180;2023-06-04T02:24:24;4.83;;;4.27;;
3975;SDS011;2002;48.812;9.180;2023-06-04T02:26:50;5.17;;;3.67;;
3975;SDS011;2002;48.812;9.180;2023-06-04T02:29:16;9.50;;;4.17;;
3975;SDS011;2002;48.812;9.180;2023-06-04T02:31:41;4.57;;;4.17;;
3975;SDS011;2002;48.812;9.180;2023-06-04T02:34:07;8.20;;;4.00;;
3975;SDS011;2002;48.812;9.180;2023-06-04T02:36:33;7.60;;;3.90;;
3975;SDS011;2002;48.812;9.180;2023-06-04T02:38:59;8.33;;;5.47;;
3975;SDS011;2002;48.812;9.180;2023-06-04T02:41:26;7.70;;;4.07;;
3975;SDS011;2002;48.812;9.180;2023-06-04T02:43:51;5.43;;;4.40;;
3975;SDS011;2002;48.812;9.180;2023-06-04T02:46:17;4.17;;;3.73;;
3975;SDS011;2002;48.812;9.180;2023-06-04T02:48:42;4.53;;;4.13;;
3975;SDS011;2002;48.812;9.180;2023-06-04T02:51:08;4.13;;;3.60;;
3975;SDS011;2002;48.812;9.180;2023-06-04T02:53:35;4.10;;;3.70;;
3975;SDS011;2002;48.812;9.180;2023-06-04T02:56:01;4.17;;;3.67;;
3975;SDS011;2002;48.812;9.180;2023-06-04T02:58:26;4.57;;;4.07;;
3975;SDS011;2002;48.812;9.180;2023-06-04T03:00:53;4.90;;;3.23;;
3975;SDS011;2002;48.812;9.180;2023-06-04T03:03:20;6.33;;;4.27;;
3975;SDS011;2002;48.812;9.180;2023-06-04T03:05:46;4.73;;;4.20;;
3975;SDS011;2002;48.812;9.180;2023-06-04T03:08:11;8.23;;;3.70;;
3975;SDS011;2002;48.812;9.180;2023-06-04T03:10:37;4.23;;;3.83;;
3975;SDS011;2002;48.812;9.180;2023-06-04T03:13:03;4.17;;;3.60;;
3975;SDS011;2002;48.812;9.180;2023-06-04T03:15:29;4.80;;;3.80;;
3975;SDS011;2002;48.812;9.180;2023-06-04T03:17:54;4.00;;;3.70;;
3975;SDS011;2002;48.812;9.180;2023-06-04T03:20:20;4.80;;;4.00;;
3975;SDS011;2002;48.812;9.180;2023-06-04T03:22:48;3.90;;;3.50;;
3975;SDS011;2002;48.812;9.180;2023-06-04T03:25:15;4.70;;;3.47;;
3975;SDS011;2002;48.812;9.180;2023-06-04T03:27:41;3.30;;;3.00;;
3975;SDS011;2002;48.812;9.180;2023-06-04T03:30:06;4.37;;;3.20;;
3975;SDS011;2002;48.812;9.180;2023-06-04T03:32:32;3.50;;;3.20;;
3975;SDS011;2002;48.812;9.180;2023-06-04T03:34:58;3.50;;;3.20;;
3975;SDS011;2002;48.812;9.180;2023-06-04T03:37:24;6.80;;;3.47;;
3975;SDS011;2002;48.812;9.180;2023-06-04T03:39:51;2.93;;;2.70;;
3975;SDS011;2002;48.812;9.180;2023-06-04T03:42:16;3.63;;;3.33;;
3975;SDS011;2002;48.812;9.180;2023-06-04T03:44:42;5.90;;;3.57;;
3975;SDS011;2002;48.812;9.180;2023-06-04T03:47:07;3.30;;;3.10;;
3975;SDS011;2002;48.812;9.180;2023-06-04T03:49:33;4.53;;;3.50;;
3975;SDS011;2002;48.812;9.180;2023-06-04T03:51:58;4.17;;;3.77;;
3975;SDS011;2002;48.812;9.180;2023-06-04T03:54:24;3.77;;;3.47;;
3975;SDS011;2002;48.812;9.180;2023-06-04T03:56:49;3.40;;;3.10;;
3975;SDS011;2002;48.812;9.180;2023-06-04T03:59:15;5.40;;;3.23;;
3975;SDS011;2002;48.812;9.180;2023-06-04T04:01:41;4.37;;;3.27;;
3975;SDS011;2002;48.812;9.180;2023-06-04T04:04:07;3.70;;;3.40;;
3975;SDS011;2002;48.812;9.180;2023-06-04T04:06:32;3.20;;;2.90;;
3975;SDS011;2002;48.812;9.180;2023-06-04T04:08:58;3.20;;;2.90;;
3975;SDS011;2002;48.812;9.180;2023-06-04T04:11:23;3.60;;;3.27;;
3975;SDS011;2002;48.812;9.180;2023-06-04T04:13:50;3.10;;;2.80;;
3975;SDS011;2002;48.812;9.180;2023-06-04T04:16:16;5.17;;;2.93;;
3975;SDS011;2002;48.812;9.180;2023-06-04T04:18:42;3.60;;;3.30;;
3975;SDS011;2002;48.812;9.180;2023-06-04T04:21:11;3.33;;;2.90;;
3975;SDS011;2002;48.812;9.180;2023-06-04T04:23:37;3.53;;;3.20;;
3975;SDS011;2002;48.812;9.180;2023-06-04T04:26:07;3.30;;;3.00;;
3975;SDS011;2002;48.812;9.180;2023-06-04T04:28:33;3.97;;;3.13;;
3975;SDS011;2002;48.812;9.180;2023-06-04T04:30:59;3.43;;;3.10;;
3975;SDS011;2002;48.812;9.180;2023-06-04T04:33:27;4.00;;;3.60;;
3975;SDS011;2002;48.812;9.180;2023-06-04T04:35:57;3.30;;;2.57;;
3975;SDS011;2002;48.812;9.180;2023-06-04T04:38:24;3.53;;;2.70;;
3975;SDS011;2002;48.812;9.180;2023-06-04T04:40:50;3.20;;;2.90;;
3975;SDS011;2002;48.812;9.180;2023-06-04T04:43:17;3.73;;;3.10;;
3975;SDS011;2002;48.812;9.180;2023-06-04T04:45:59;4.20;;;3.80;;
3975;SDS011;2002;48.812;9.180;2023-06-04T04:48:24;2.80;;;2.60;;
3975;SDS011;2002;48.812;9.180;2023-06-04T04:50:53;3.53;;;3.13;;
3975;SDS011;2002;48.812;9.180;2023-06-04T04:53:19;2.67;;;2.47;;
3975;SDS011;2002;48.812;9.180;2023-06-04T04:55:45;2.77;;;2.57;;
3975;SDS011;2002;48.812;9.180;2023-06-04T04:58:10;2.97;;;2.73;;
3975;SDS011;2002;48.812;9.180;2023-06-04T05:00:36;2.77;;;2.57;;
3975;SDS011;2002;48.812;9.180;2023-06-04T05:03:01;3.80;;;3.17;;
3975;SDS011;2002;48.812;9.180;2023-06-04T05:05:27;4.17;;;3.20;;
3975;SDS011;2002;48.812;9.180;2023-06-04T05:07:52;7.00;;;3.00;;
3975;SDS011;2002;48.812;9.180;2023-06-04T05:10:18;2.90;;;2.50;;
3975;SDS011;2002;48.812;9.180;2023-06-04T05:12:53;4.07;;;2.73;;
3975;SDS011;2002;48.812;9.180;2023-06-04T05:15:20;3.00;;;2.80;;
3975;SDS011;2002;48.812;9.180;2023-06-04T05:17:46;3.80;;;3.10;;
3975;SDS011;2002;48.812;9.180;2023-06-04T05:20:12;3.33;;;2.53;;
3975;SDS011;2002;48.812;9.180;2023-06-04T05:22:38;5.43;;;3.40;;
3975;SDS011;2002;48.812;9.180;2023-06-04T05:25:04;3.20;;;2.53;;
3975;SDS011;2002;48.812;9.180;2023-06-04T05:27:31;3.10;;;2.90;;
3975;SDS011;2002;48.812;9.180;2023-06-04T05:29:57;2.93;;;2.60;;
3975;SDS011;2002;48.812;9.180;2023-06-04T05:32:23;3.90;;;2.60;;
3975;SDS011;2002;48.812;9.180;2023-06-04T05:34:53;3.00;;;2.70;;
3975;SDS011;2002;48.812;9.180;2023-06-04T05:37:22;3.30;;;3.00;;
3975;SDS011;2002;48.812;9.180;2023-06-04T05:39:49;4.53;;;4.13;;
3975;SDS011;2002;48.812;9.180;2023-06-04T05:42:14;3.43;;;2.27;;
3975;SDS011;2002;48.812;9.180;2023-06-04T05:44:40;2.93;;;2.63;;
3975;SDS011;2002;48.812;9.180;2023-06-04T05:47:06;3.57;;;2.90;;
3975;SDS011;2002;48.812;9.180;2023-06-04T05:49:33;2.33;;;2.13;;
3975;SDS011;2002;48.812;9.180;2023-06-04T05:51:59;3.40;;;3.00;;
3975;SDS011;2002;48.812;9.180;2023-06-04T05:54:26;3.87;;;3.10;;
3975;SDS011;2002;48.812;9.180;2023-06-04T05:56:51;2.87;;;2.67;;
3975;SDS011;2002;48.812;9.180;2023-06-04T05:59:17;2.93;;;2.73;;
3975;SDS011;2002;48.812;9.180;2023-06-04T06:01:43;4.43;;;2.70;;
3975;SDS011;2002;48.812;9.180;2023-06-04T06:04:08;2.70;;;2.50;;
3975;SDS011;2002;48.812;9.180;2023-06-04T06:06:35;3.37;;;2.57;;
3975;SDS011;2002;48.812;9.180;2023-06-04T06:09:00;2.67;;;2.43;;
3975;SDS011;2002;48.812;9.180;2023-06-04T06:11:26;3.10;;;2.80;;
3975;SDS011;2002;48.812;9.180;2023-06-04T06:13:52;3.73;;;2.40;;
3975;SDS011;2002;48.812;9.180;2023-06-04T06:16:18;3.13;;;2.37;;
3975;SDS011;2002;48.812;9.180;2023-06-04T06:18:43;3.20;;;2.90;;
3975;SDS011;2002;48.812;9.180;2023-06-04T06:21:09;2.37;;;2.10;;
3975;SDS011;2002;48.812;9.180;2023-06-04T06:23:35;3.00;;;2.30;;
3975;SDS011;2002;48.812;9.180;2023-06-04T06:26:01;2.30;;;2.10;;
3975;SDS011;2002;48.812;9.180;2023-06-04T06:28:27;3.30;;;2.60;;
3975;SDS011;2002;48.812;9.180;2023-06-04T06:30:52;4.00;;;2.90;;
3975;SDS011;2002;48.812;9.180;2023-06-04T06:33:18;4.53;;;2.87;;
3975;SDS011;2002;48.812;9.180;2023-06-04T06:35:46;2.57;;;2.23;;
3975;SDS011;2002;48.812;9.180;2023-06-04T06:38:12;3.63;;;2.77;;
3975;SDS011;2002;48.812;9.180;2023-06-04T06:40:38;3.20;;;2.47;;
3975;SDS011;2002;48.812;9.180;2023-06-04T06:43:05;3.30;;;3.00;;
3975;SDS011;2002;48.812;9.180;2023-06-04T06:45:30;3.90;;;2.40;;
3975;SDS011;2002;48.812;9.180;2023-06-04T06:47:56;2.97;;;2.67;;
3975;SDS011;2002;48.812;9.180;2023-06-04T06:50:21;3.00;;;2.40;;
3975;SDS011;2002;48.812;9.180;2023-06-04T06:52:47;3.07;;;2.57;;
3975;SDS011;2002;48.812;9.180;2023-06-04T06:55:12;3.80;;;2.93;;
3975;SDS011;2002;48.812;9.180;2023-06-04T06:57:38;2.73;;;2.43;;
3975;SDS011;2002;48.812;9.180;2023-06-04T07:00:04;2.73;;;2.30;;
3975;SDS011;2002;48.812;9.180;2023-06-04T07:02:30;2.70;;;2.27;;
3975;SDS011;2002;48.812;9.180;2023-06-04T07:04:56;2.53;;;2.33;;
3975;SDS011;2002;48.812;9.180;2023-06-04T07:07:21;3.23;;;2.50;;
3975;SDS011;2002;48.812;9.180;2023-06-04T07:09:47;2.20;;;2.10;;
3975;SDS011;2002;48.812;9.180;2023-06-04T07:12:13;3.17;;;2.30;;
3975;SDS011;2002;48.812;9.180;2023-06-04T07:14:38;3.73;;;2.67;;
3975;SDS011;2002;48.812;9.180;2023-06-04T07:17:04;4.10;;;2.10;;
3975;SDS011;2002;48.812;9.180;2023-06-04T07:19:29;3.80;;;2.73;;
3975;SDS011;2002;48.812;9.180;2023-06-04T07:21:55;3.70;;;2.77;;
3975;SDS011;2002;48.812;9.180;2023-06-04T07:24:21;3.03;;;2.73;;
3975;SDS011;2002;48.812;9.180;2023-06-04T07:26:47;3.60;;;2.40;;
3975;SDS011;2002;48.812;9.180;2023-06-04T07:29:12;2.40;;;2.20;;
3975;SDS011;2002;48.812;9.180;2023-06-04T07:31:38;2.90;;;2.43;;
3975;SDS011;2002;48.812;9.180;2023-06-04T07:34:04;2.60;;;2.40;;
3975;SDS011;2002;48.812;9.180;2023-06-04T07:36:29;2.23;;;2.03;;
3975;SDS011;2002;48.812;9.180;2023-06-04T07:38:56;3.83;;;2.80;;
3975;SDS011;2002;48.812;9.180;2023-06-04T07:41:21;2.40;;;2.20;;
3975;SDS011;2002;48.812;9.180;2023-06-04T07:43:47;2.63;;;2.43;;
3975;SDS011;2002;48.812;9.180;2023-06-04T07:46:12;3.20;;;2.27;;
3975;SDS011;2002;48.812;9.180;2023-06-04T07:48:38;3.23;;;2.10;;
3975;SDS011;2002;48.812;9.180;2023-06-04T07:51:04;2.50;;;2.30;;
3975;SDS011;2002;48.812;9.180;2023-06-04T07:53:29;4.30;;;2.97;;
3975;SDS011;2002;48.812;9.180;2023-06-04T07:55:56;4.10;;;2.87;;
3975;SDS011;2002;48.812;9.180;2023-06-04T07:58:22;2.77;;;2.57;;
3975;SDS011;2002;48.812;9.180;2023-06-04T08:00:48;4.60;;;2.57;;
3975;SDS011;2002;48.812;9.180;2023-06-04T08:03:14;2.50;;;2.30;;
3975;SDS011;2002;48.812;9.180;2023-06-04T08:05:40;3.40;;;2.53;;
3975;SDS011;2002;48.812;9.180;2023-06-04T08:08:06;3.03;;;2.83;;
3975;SDS011;2002;48.812;9.180;2023-06-04T08:10:33;2.97;;;2.67;;
3975;SDS011;2002;48.812;9.180;2023-06-04T08:12:58;2.70;;;2.37;;
3975;SDS011;2002;48.812;9.180;2023-06-04T08:15:24;2.40;;;2.03;;
3975;SDS011;2002;48.812;9.180;2023-06-04T08:17:49;2.57;;;2.37;;
3975;SDS011;2002;48.812;9.180;2023-06-04T08:20:15;4.53;;;2.43;;
3975;SDS011;2002;48.812;9.180;2023-06-04T08:22:40;3.20;;;2.30;;
3975;SDS011;2002;48.812;9.180;2023-06-04T08:25:06;2.70;;;2.40;;
3975;SDS011;2002;48.812;9.180;2023-06-04T08:27:33;2.43;;;2.10;;
3975;SDS011;2002;48.812;9.180;2023-06-04T08:29:59;5.03;;;2.90;;
3975;SDS011;2002;48.812;9.180;2023-06-04T08:32:25;2.40;;;2.20;;
3975;SDS011;2002;48.812;9.180;2023-06-04T08:34:50;2.40;;;2.10;;
3975;SDS011;2002;48.812;9.180;2023-06-04T08:37:19;8.10;;;2.40;;
3975;SDS011;2002;48.812;9.180;2023-06-04T08:39:45;4.23;;;3.13;;
3975;SDS011;2002;48.812;9.180;2023-06-04T08:42:15;4.63;;;2.20;;
3975;SDS011;2002;48.812;9.180;2023-06-04T08:44:49;7.30;;;3.90;;
3975;SDS011;2002;48.812;9.180;2023-06-04T08:47:19;3.40;;;2.77;;
3975;SDS011;2002;48.812;9.180;2023-06-04T08:49:46;3.33;;;3.03;;
3975;SDS011;2002;48.812;9.180;2023-06-04T08:52:17;2.97;;;2.20;;
3975;SDS011;2002;48.812;9.180;2023-06-04T08:54:48;4.10;;;2.63;;
3975;SDS011;2002;48.812;9.180;2023-06-04T08:57:16;4.00;;;2.50;;
3975;SDS011;2002;48.812;9.180;2023-06-04T08:59:44;2.70;;;2.03;;
3975;SDS011;2002;48.812;9.180;2023-06-04T09:02:11;3.03;;;1.90;;
3975;SDS011;2002;48.812;9.180;2023-06-04T09:04:40;5.30;;;2.03;;
3975;SDS011;2002;48.812;9.180;2023-06-04T09:07:06;2.50;;;2.20;;
3975;SDS011;2002;48.812;9.180;2023-06-04T09:09:37;1.97;;;1.87;;
3975;SDS011;2002;48.812;9.180;2023-06-04T09:12:04;2.90;;;2.27;;
3975;SDS011;2002;48.812;9.180;2023-06-04T09:14:33;2.37;;;2.17;;
3975;SDS011;2002;48.812;9.180;2023-06-04T09:16:59;2.47;;;1.63;;
3975;SDS011;2002;48.812;9.180;2023-06-04T09:19:24;1.97;;;1.80;;
3975;SDS011;2002;48.812;9.180;2023-06-04T09:21:51;3.13;;;2.10;;
3975;SDS011;2002;48.812;9.180;2023-06-04T09:24:18;2.23;;;1.87;;
3975;SDS011;2002;48.812;9.180;2023-06-04T09:26:45;2.23;;;2.07;;
3975;SDS011;2002;48.812;9.180;2023-06-04T09:29:11;2.70;;;2.23;;
3975;SDS011;2002;48.812;9.180;2023-06-04T09:31:37;2.83;;;2.30;;
3975;SDS011;2002;48.812;9.180;2023-06-04T09:34:03;2.10;;;1.90;;
3975;SDS011;2002;48.812;9.180;2023-06-04T09:36:35;2.10;;;1.90;;
3975;SDS011;2002;48.812;9.180;2023-06-04T09:39:04;3.67;;;1.77;;
3975;SDS011;2002;48.812;9.180;2023-06-04T09:41:39;3.67;;;2.80;;
3975;SDS011;2002;48.812;9.180;2023-06-04T09:44:05;2.67;;;2.20;;
3975;SDS011;2002;48.812;9.180;2023-06-04T09:46:31;2.23;;;1.90;;
3975;SDS011;2002;48.812;9.180;2023-06-04T09:49:03;2.70;;;2.50;;
3975;SDS011;2002;48.812;9.180;2023-06-04T09:51:29;2.50;;;2.30;;
3975;SDS011;2002;48.812;9.180;2023-06-04T09:53:56;2.50;;;2.13;;
3975;SDS011;2002;48.812;9.180;2023-06-04T09:56:26;3.03;;;2.20;;
3975;SDS011;2002;48.812;9.180;2023-06-04T09:58:56;2.30;;;2.10;;
3975;SDS011;2002;48.812;9.180;2023-06-04T10:01:25;2.83;;;2.23;;
3975;SDS011;2002;48.812;9.180;2023-06-04T10:03:52;9.93;;;2.60;;
3975;SDS011;2002;48.812;9.180;2023-06-04T10:06:19;3.37;;;2.60;;
3975;SDS011;2002;48.812;9.180;2023-06-04T10:08:50;4.73;;;2.50;;
3975;SDS011;2002;48.812;9.180;2023-06-04T10:11:17;4.83;;;2.70;;
3975;SDS011;2002;48.812;9.180;2023-06-04T10:14:00;4.67;;;2.73;;
3975;SDS011;2002;48.812;9.180;2023-06-04T10:16:44;2.77;;;2.30;;
3975;SDS011;2002;48.812;9.180;2023-06-04T10:19:11;2.37;;;2.17;;
3975;SDS011;2002;48.812;9.180;2023-06-04T10:21:37;5.50;;;2.80;;
3975;SDS011;2002;48.812;9.180;2023-06-04T10:24:03;3.93;;;2.50;;
3975;SDS011;2002;48.812;9.180;2023-06-04T10:26:29;2.63;;;2.33;;
3975;SDS011;2002;48.812;9.180;2023-06-04T10:28:56;2.50;;;2.30;;
3975;SDS011;2002;48.812;9.180;2023-06-04T10:31:22;2.50;;;2.30;;
3975;SDS011;2002;48.812;9.180;2023-06-04T10:33:47;3.67;;;3.00;;
3975;SDS011;2002;48.812;9.180;2023-06-04T10:36:19;3.20;;;2.97;;
3975;SDS011;2002;48.812;9.180;2023-06-04T10:38:46;2.70;;;2.50;;
3975;SDS011;2002;48.812;9.180;2023-06-04T10:41:16;3.27;;;3.00;;
3975;SDS011;2002;48.812;9.180;2023-06-04T10:43:46;3.20;;;2.90;;
3975;SDS011;2002;48.812;9.180;2023-06-04T10:46:14;3.90;;;2.93;;
3975;SDS011;2002;48.812;9.180;2023-06-04T10:48:59;3.57;;;3.07;;
3975;SDS011;2002;48.812;9.180;2023-06-04T10:51:32;3.27;;;2.30;;
3975;SDS011;2002;48.812;9.180;2023-06-04T10:53:58;3.50;;;3.20;;
3975;SDS011;2002;48.812;9.180;2023-06-04T10:56:28;2.40;;;2.17;;
3975;SDS011;2002;48.812;9.180;2023-06-04T10:58:57;2.87;;;2.60;;
3975;SDS011;2002;48.812;9.180;2023-06-04T11:01:26;2.87;;;2.40;;
3975;SDS011;2002;48.812;9.180;2023-06-04T11:03:53;3.90;;;3.53;;
3975;SDS011;2002;48.812;9.180;2023-06-04T11:06:19;3.67;;;3.20;;
3975;SDS011;2002;48.812;9.180;2023-06-04T11:08:46;5.90;;;3.10;;
3975;SDS011;2002;48.812;9.180;2023-06-04T11:11:12;3.47;;;3.17;;
3975;SDS011;2002;48.812;9.180;2023-06-04T11:13:39;4.23;;;3.40;;
3975;SDS011;2002;48.812;9.180;2023-06-04T11:16:14;4.03;;;2.67;;
3975;SDS011;2002;48.812;9.180;2023-06-04T11:18:41;2.80;;;2.60;;
3975;SDS011;2002;48.812;9.180;2023-06-04T11:21:06;3.23;;;2.93;;
3975;SDS011;2002;48.812;9.180;2023-06-04T11:23:32;4.10;;;3.70;;
3975;SDS011;2002;48.812;9.180;2023-06-04T11:25:58;5.40;;;3.13;;
3975;SDS011;2002;48.812;9.180;2023-06-04T11:28:24;2.87;;;2.27;;
3975;SDS011;2002;48.812;9.180;2023-06-04T11:30:59;3.10;;;2.87;;
3975;SDS011;2002;48.812;9.180;2023-06-04T11:33:30;4.07;;;3.37;;
3975;SDS011;2002;48.812;9.180;2023-06-04T11:36:10;2.70;;;2.50;;
3975;SDS011;2002;48.812;9.180;2023-06-04T11:38:53;3.20;;;2.37;;
3975;SDS011;2002;48.812;9.180;2023-06-04T11:41:23;3.23;;;2.93;;
3975;SDS011;2002;48.812;9.180;2023-06-04T11:43:51;2.97;;;2.73;;
3975;SDS011;2002;48.812;9.180;2023-06-04T11:46:17;4.23;;;3.00;;
3975;SDS011;2002;48.812;9.180;2023-06-04T11:48:43;3.40;;;2.80;;
3975;SDS011;2002;48.812;9.180;2023-06-04T11:51:09;3.30;;;3.00;;
3975;SDS011;2002;48.812;9.180;2023-06-04T11:53:36;3.50;;;3.20;;
3975;SDS011;2002;48.812;9.180;2023-06-04T11:56:02;4.17;;;3.77;;
3975;SDS011;2002;48.812;9.180;2023-06-04T11:58:29;4.53;;;3.77;;
3975;SDS011;2002;48.812;9.180;2023-06-04T12:00:55;3.73;;;3.13;;
3975;SDS011;2002;48.812;9.180;2023-06-04T12:03:35;3.70;;;3.40;;
3975;SDS011;2002;48.812;9.180;2023-06-04T12:06:15;4.63;;;3.40;;
3975;SDS011;2002;48.812;9.180;2023-06-04T12:08:45;3.30;;;2.90;;
3975;SDS011;2002;48.812;9.180;2023-06-04T12:13:59;3.33;;;2.77;;
3975;SDS011;2002;48.812;9.180;2023-06-04T12:16:26;3.60;;;3.30;;
3975;SDS011;2002;48.812;9.180;2023-06-04T12:18:52;5.30;;;4.10;;
3975;SDS011;2002;48.812;9.180;2023-06-04T12:21:28;3.60;;;3.13;;
3975;SDS011;2002;48.812;9.180;2023-06-04T12:24:05;3.80;;;2.70;;
3975;SDS011;2002;48.812;9.180;2023-06-04T12:26:32;3.20;;;3.00;;
3975;SDS011;2002;48.812;9.180;2023-06-04T12:29:02;5.20;;;3.07;;
3975;SDS011;2002;48.812;9.180;2023-06-04T12:31:47;4.53;;;2.93;;
3975;SDS011;2002;48.812;9.180;2023-06-04T12:34:13;4.97;;;3.20;;
3975;SDS011;2002;48.812;9.180;2023-06-04T12:36:39;2.80;;;2.60;;
3975;SDS011;2002;48.812;9.180;2023-06-04T12:39:05;4.20;;;2.60;;
3975;SDS011;2002;48.812;9.180;2023-06-04T12:41:32;3.97;;;2.70;;
3975;SDS011;2002;48.812;9.180;2023-06-04T12:44:01;5.47;;;3.17;;
3975;SDS011;2002;48.812;9.180;2023-06-04T12:46:27;3.70;;;3.00;;
3975;SDS011;2002;48.812;9.180;2023-06-04T12:48:53;3.10;;;2.60;;
3975;SDS011;2002;48.812;9.180;2023-06-04T12:51:19;2.63;;;2.43;;
3975;SDS011;2002;48.812;9.180;2023-06-04T12:53:46;3.90;;;3.50;;
3975;SDS011;2002;48.812;9.180;2023-06-04T12:56:12;3.10;;;2.80;;
3975;SDS011;2002;48.812;9.180;2023-06-04T12:58:39;3.30;;;3.10;;
3975;SDS011;2002;48.812;9.180;2023-06-04T13:01:05;2.67;;;2.47;;
3975;SDS011;2002;48.812;9.180;2023-06-04T13:03:30;3.50;;;3.10;;
3975;SDS011;2002;48.812;9.180;2023-06-04T13:05:56;4.97;;;2.67;;
3975;SDS011;2002;48.812;9.180;2023-06-04T13:08:22;5.33;;;3.33;;
3975;SDS011;2002;48.812;9.180;2023-06-04T13:10:52;3.43;;;3.13;;
3975;SDS011;2002;48.812;9.180;2023-06-04T13:13:18;3.47;;;3.00;;
3975;SDS011;2002;48.812;9.180;2023-06-04T13:15:44;5.60;;;3.57;;
3975;SDS011;2002;48.812;9.180;2023-06-04T13:18:11;4.30;;;3.00;;
3975;SDS011;2002;48.812;9.180;2023-06-04T13:20:37;3.00;;;2.70;;
3975;SDS011;2002;48.812;9.180;2023-06-04T13:23:04;3.53;;;2.77;;
3975;SDS011;2002;48.812;9.180;2023-06-04T13:25:30;3.30;;;3.00;;
3975;SDS011;2002;48.812;9.180;2023-06-04T13:28:01;5.07;;;3.30;;
3975;SDS011;2002;48.812;9.180;2023-06-04T13:30:27;5.83;;;2.80;;
3975;SDS011;2002;48.812;9.180;2023-06-04T13:32:53;17.87;;;6.90;;
3975;SDS011;2002;48.812;9.180;2023-06-04T13:35:19;24.73;;;9.37;;
3975;SDS011;2002;48.812;9.180;2023-06-04T13:37:44;25.50;;;8.40;;
3975;SDS011;2002;48.812;9.180;2023-06-04T13:40:10;30.03;;;9.90;;
3975;SDS011;2002;48.812;9.180;2023-06-04T13:42:36;26.33;;;10.67;;
3975;SDS011;2002;48.812;9.180;2023-06-04T13:45:02;33.60;;;15.23;;
3975;SDS011;2002;48.812;9.180;2023-06-04T13:47:28;30.67;;;11.00;;
3975;SDS011;2002;48.812;9.180;2023-06-04T13:49:53;33.73;;;11.23;;
3975;SDS011;2002;48.812;9.180;2023-06-04T13:52:19;34.40;;;11.00;;
3975;SDS011;2002;48.812;9.180;2023-06-04T13:54:45;22.20;;;10.00;;
3975;SDS011;2002;48.812;9.180;2023-06-04T13:57:10;18.60;;;7.77;;
3975;SDS011;2002;48.812;9.180;2023-06-04T13:59:36;20.90;;;9.37;;
3975;SDS011;2002;48.812;9.180;2023-06-04T14:02:03;20.63;;;8.13;;
3975;SDS011;2002;48.812;9.180;2023-06-04T14:04:28;20.60;;;7.37;;
3975;SDS011;2002;48.812;9.180;2023-06-04T14:06:54;21.13;;;7.77;;
3975;SDS011;2002;48.812;9.180;2023-06-04T14:09:20;15.97;;;6.00;;
3975;SDS011;2002;48.812;9.180;2023-06-04T14:11:45;18.73;;;8.60;;
3975;SDS011;2002;48.812;9.180;2023-06-04T14:14:15;16.70;;;6.73;;
3975;SDS011;2002;48.812;9.180;2023-06-04T14:16:42;15.77;;;5.83;;
3975;SDS011;2002;48.812;9.180;2023-06-04T14:19:08;13.53;;;4.70;;
3975;SDS011;2002;48.812;9.180;2023-06-04T14:21:33;11.77;;;5.37;;
3975;SDS011;2002;48.812;9.180;2023-06-04T14:23:59;10.83;;;5.20;;
3975;SDS011;2002;48.812;9.180;2023-06-04T14:26:24;8.40;;;4.27;;
3975;SDS011;2002;48.812;9.180;2023-06-04T14:28:50;10.10;;;4.80;;
3975;SDS011;2002;48.812;9.180;2023-06-04T14:31:15;10.20;;;4.43;;
3975;SDS011;2002;48.812;9.180;2023-06-04T14:33:41;7.17;;;4.30;;
3975;SDS011;2002;48.812;9.180;2023-06-04T14:36:06;10.47;;;4.67;;
3975;SDS011;2002;48.812;9.180;2023-06-04T14:38:32;11.43;;;4.70;;
3975;SDS011;2002;48.812;9.180;2023-06-04T14:40:58;9.80;;;4.27;;
3975;SDS011;2002;48.812;9.180;2023-06-04T14:43:24;8.40;;;3.77;;
3975;SDS011;2002;48.812;9.180;2023-06-04T14:45:49;10.43;;;4.70;;
3975;SDS011;2002;48.812;9.180;2023-06-04T14:48:15;9.30;;;3.43;;
3975;SDS011;2002;48.812;9.180;2023-06-04T14:50:41;5.73;;;3.33;;
3975;SDS011;2002;48.812;9.180;2023-06-04T14:53:06;6.80;;;2.60;;
3975;SDS011;2002;48.812;9.180;2023-06-04T14:55:35;6.20;;;3.60;;
3975;SDS011;2002;48.812;9.180;2023-06-04T14:58:01;4.40;;;2.47;;
3975;SDS011;2002;48.812;9.180;2023-06-04T15:00:28;7.40;;;4.13;;
3975;SDS011;2002;48.812;9.180;2023-06-04T15:02:53;4.10;;;2.67;;
3975;SDS011;2002;48.812;9.180;2023-06-04T15:05:19;4.97;;;2.73;;
3975;SDS011;2002;48.812;9.180;2023-06-04T15:07:44;4.03;;;2.57;;
3975;SDS011;2002;48.812;9.180;2023-06-04T15:10:10;6.93;;;3.07;;
3975;SDS011;2002;48.812;9.180;2023-06-04T15:12:35;4.33;;;2.37;;
3975;SDS011;2002;48.812;9.180;2023-06-04T15:15:03;3.83;;;2.53;;
3975;SDS011;2002;48.812;9.180;2023-06-04T15:17:30;4.43;;;2.87;;
3975;SDS011;2002;48.812;9.180;2023-06-04T15:19:56;4.43;;;2.63;;
3975;SDS011;2002;48.812;9.180;2023-06-04T15:22:21;4.00;;;2.00;;
3975;SDS011;2002;48.812;9.180;2023-06-04T15:24:47;3.53;;;2.00;;
3975;SDS011;2002;48.812;9.180;2023-06-04T15:27:12;4.30;;;2.50;;
3975;SDS011;2002;48.812;9.180;2023-06-04T15:29:38;4.93;;;2.30;;